sensor_id;sensor_type;location;lat;lon;timestamp;pressure;altitude;pressure_sealevel;temperature;humidity
75089;BME280;63673;49.928;8.150;2023-03-04T00:00:41;998.7;;;-2.77;100
75089;BME280;63673;49.928;8.150;2023-03-04T00:01:43;998.7;;;-2.76;100
75089;BME280;63673;49.928;8.150;2023-03-04T00:02:45;998.69;;;-2.77;100
75089;BME280;63673;49.928;8.150;2023-03-04T00:03:47;998.64;;;-2.77;100
75089;BME280;63673;49.928;8.150;2023-03-04T00:04:48;998.69;;;-2.79;100
75089;BME280;63673;49.928;8.150;2023-03-04T00:05:50;998.76;;;-2.77;100
75089;BME280;63673;49.928;8.150;2023-03-04T00:06:52;998.72;;;-2.79;100
75089;BME280;63673;49.928;8.150;2023-03-04T00:07:54;998.74;;;-2.78;100
75089;BME280;63673;49.928;8.150;2023-03-04T00:08:55;998.7;;;-2.78;100
75089;BME280;63673;49.928;8.150;2023-03-04T00:09:57;998.79;;;-2.78;100
75089;BME280;63673;49.928;8.150;2023-03-04T00:10:59;998.73;;;-2.78;100
75089;BME280;63673;49.928;8.150;2023-03-04T00:12:00;998.72;;;-2.78;100
75089;BME280;63673;49.928;8.150;2023-03-04T00:13:02;998.77;;;-2.76;100
75089;BME280;63673;49.928;8.150;2023-03-04T00:14:04;998.74;;;-2.76;100
75089;BME280;63673;49.928;8.150;2023-03-04T00:15:06;998.74;;;-2.76;100
75089;BME280;63673;49.928;8.150;2023-03-04T00:16:07;998.78;;;-2.75;100
75089;BME280;63673;49.928;8.150;2023-03-04T00:17:09;998.75;;;-2.74;100
75089;BME280;63673;49.928;8.150;2023-03-04T00:18:11;998.76;;;-2.73;100
75089;BME280;63673;49.928;8.150;2023-03-04T00:19:13;998.79;;;-2.74;100
75089;BME280;63673;49.928;8.150;2023-03-04T00:20:14;998.81;;;-2.73;100
75089;BME280;63673;49.928;8.150;2023-03-04T00:21:16;998.84;;;-2.73;100
75089;BME280;63673;49.928;8.150;2023-03-04T00:22:18;998.85;;;-2.73;100
75089;BME280;63673;49.928;8.150;2023-03-04T00:23:20;998.84;;;-2.73;100
75089;BME280;63673;49.928;8.150;2023-03-04T00:24:21;998.82;;;-2.72;100
75089;BME280;63673;49.928;8.150;2023-03-04T00:25:23;998.81;;;-2.73;100
75089;BME280;63673;49.928;8.150;2023-03-04T00:26:25;998.82;;;-2.73;100
75089;BME280;63673;49.928;8.150;2023-03-04T00:27:26;998.81;;;-2.74;100
75089;BME280;63673;49.928;8.150;2023-03-04T00:28:28;998.84;;;-2.72;100
75089;BME280;63673;49.928;8.150;2023-03-04T00:29:30;998.84;;;-2.73;100
75089;BME280;63673;49.928;8.150;2023-03-04T00:30:32;998.84;;;-2.73;100
75089;BME280;63673;49.928;8.150;2023-03-04T00:31:33;998.81;;;-2.72;100
75089;BME280;63673;49.928;8.150;2023-03-04T00:32:35;998.79;;;-2.73;100
75089;BME280;63673;49.928;8.150;2023-03-04T00:33:37;998.74;;;-2.72;100
75089;BME280;63673;49.928;8.150;2023-03-04T00:34:39;998.74;;;-2.73;100
75089;BME280;63673;49.928;8.150;2023-03-04T00:35:40;998.72;;;-2.74;100
75089;BME280;63673;49.928;8.150;2023-03-04T00:36:42;998.7;;;-2.75;100
75089;BME280;63673;49.928;8.150;2023-03-04T00:37:44;998.73;;;-2.75;100
75089;BME280;63673;49.928;8.150;2023-03-04T00:38:46;998.77;;;-2.75;100
75089;BME280;63673;49.928;8.150;2023-03-04T00:39:47;998.61;;;-2.76;100
75089;BME280;63673;49.928;8.150;2023-03-04T00:40:49;998.75;;;-2.78;100
75089;BME280;63673;49.928;8.150;2023-03-04T00:41:51;998.74;;;-2.78;100
75089;BME280;63673;49.928;8.150;2023-03-04T00:42:52;998.78;;;-2.79;100
75089;BME280;63673;49.928;8.150;2023-03-04T00:43:54;998.75;;;-2.8;100
75089;BME280;63673;49.928;8.150;2023-03-04T00:44:56;998.77;;;-2.79;100
75089;BME280;63673;49.928;8.150;2023-03-04T00:45:58;998.73;;;-2.8;100
75089;BME280;63673;49.928;8.150;2023-03-04T00:46:59;998.77;;;-2.81;100
75089;BME280;63673;49.928;8.150;2023-03-04T00:48:01;998.72;;;-2.79;100
75089;BME280;63673;49.928;8.150;2023-03-04T00:49:03;998.71;;;-2.81;100
75089;BME280;63673;49.928;8.150;2023-03-04T00:50:05;998.76;;;-2.8;100
75089;BME280;63673;49.928;8.150;2023-03-04T00:51:07;998.77;;;-2.79;100
75089;BME280;63673;49.928;8.150;2023-03-04T00:52:08;998.73;;;-2.79;100
75089;BME280;63673;49.928;8.150;2023-03-04T00:53:10;998.73;;;-2.78;100
75089;BME280;63673;49.928;8.150;2023-03-04T00:54:12;998.68;;;-2.78;100
75089;BME280;63673;49.928;8.150;2023-03-04T00:55:13;998.68;;;-2.79;100
75089;BME280;63673;49.928;8.150;2023-03-04T00:56:15;998.7;;;-2.8;100
75089;BME280;63673;49.928;8.150;2023-03-04T00:57:17;998.69;;;-2.79;100
75089;BME280;63673;49.928;8.150;2023-03-04T00:58:18;998.67;;;-2.79;100
75089;BME280;63673;49.928;8.150;2023-03-04T00:59:20;998.68;;;-2.79;100
75089;BME280;63673;49.928;8.150;2023-03-04T01:00:22;998.58;;;-2.78;100
75089;BME280;63673;49.928;8.150;2023-03-04T01:01:24;998.7;;;-2.78;100
75089;BME280;63673;49.928;8.150;2023-03-04T01:02:25;998.65;;;-2.79;100
75089;BME280;63673;49.928;8.150;2023-03-04T01:03:27;998.61;;;-2.8;100
75089;BME280;63673;49.928;8.150;2023-03-04T01:04:29;998.67;;;-2.8;100
75089;BME280;63673;49.928;8.150;2023-03-04T01:05:31;998.61;;;-2.79;100
75089;BME280;63673;49.928;8.150;2023-03-04T01:06:32;998.62;;;-2.79;100
75089;BME280;63673;49.928;8.150;2023-03-04T01:07:34;998.67;;;-2.8;100
75089;BME280;63673;49.928;8.150;2023-03-04T01:08:36;998.62;;;-2.79;100
75089;BME280;63673;49.928;8.150;2023-03-04T01:09:37;998.61;;;-2.81;100
75089;BME280;63673;49.928;8.150;2023-03-04T01:10:39;998.67;;;-2.82;100
75089;BME280;63673;49.928;8.150;2023-03-04T01:11:41;998.63;;;-2.81;100
75089;BME280;63673;49.928;8.150;2023-03-04T01:12:43;998.64;;;-2.8;100
75089;BME280;63673;49.928;8.150;2023-03-04T01:13:44;998.59;;;-2.82;100
75089;BME280;63673;49.928;8.150;2023-03-04T01:14:46;998.59;;;-2.83;100
75089;BME280;63673;49.928;8.150;2023-03-04T01:15:48;998.59;;;-2.84;100
75089;BME280;63673;49.928;8.150;2023-03-04T01:16:50;998.59;;;-2.85;100
75089;BME280;63673;49.928;8.150;2023-03-04T01:17:51;998.56;;;-2.86;100
75089;BME280;63673;49.928;8.150;2023-03-04T01:18:53;998.59;;;-2.86;100
75089;BME280;63673;49.928;8.150;2023-03-04T01:19:55;998.54;;;-2.86;100
75089;BME280;63673;49.928;8.150;2023-03-04T01:20:57;998.56;;;-2.88;100
75089;BME280;63673;49.928;8.150;2023-03-04T01:21:58;998.55;;;-2.87;100
75089;BME280;63673;49.928;8.150;2023-03-04T01:23:00;998.57;;;-2.88;100
75089;BME280;63673;49.928;8.150;2023-03-04T01:24:02;998.51;;;-2.89;100
75089;BME280;63673;49.928;8.150;2023-03-04T01:25:04;998.55;;;-2.89;100
75089;BME280;63673;49.928;8.150;2023-03-04T01:26:05;998.5;;;-2.88;100
75089;BME280;63673;49.928;8.150;2023-03-04T01:27:07;998.53;;;-2.88;100
75089;BME280;63673;49.928;8.150;2023-03-04T01:28:09;998.42;;;-2.89;100
75089;BME280;63673;49.928;8.150;2023-03-04T01:29:10;998.5;;;-2.9;100
75089;BME280;63673;49.928;8.150;2023-03-04T01:30:12;998.51;;;-2.89;100
75089;BME280;63673;49.928;8.150;2023-03-04T01:31:14;998.45;;;-2.9;100
75089;BME280;63673;49.928;8.150;2023-03-04T01:32:16;998.47;;;-2.89;100
75089;BME280;63673;49.928;8.150;2023-03-04T01:33:17;998.41;;;-2.9;100
75089;BME280;63673;49.928;8.150;2023-03-04T01:34:19;998.44;;;-2.91;100
75089;BME280;63673;49.928;8.150;2023-03-04T01:35:21;998.5;;;-2.92;100
75089;BME280;63673;49.928;8.150;2023-03-04T01:36:23;998.46;;;-2.91;100
75089;BME280;63673;49.928;8.150;2023-03-04T01:37:24;998.41;;;-2.92;100
75089;BME280;63673;49.928;8.150;2023-03-04T01:38:26;998.42;;;-2.93;100
75089;BME280;63673;49.928;8.150;2023-03-04T01:39:28;998.44;;;-2.94;100
75089;BME280;63673;49.928;8.150;2023-03-04T01:40:30;998.35;;;-2.94;100
75089;BME280;63673;49.928;8.150;2023-03-04T01:41:31;998.4;;;-2.95;100
75089;BME280;63673;49.928;8.150;2023-03-04T01:42:33;998.34;;;-2.96;100
75089;BME280;63673;49.928;8.150;2023-03-04T01:43:35;998.35;;;-2.97;100
75089;BME280;63673;49.928;8.150;2023-03-04T01:44:36;998.34;;;-2.97;100
75089;BME280;63673;49.928;8.150;2023-03-04T01:45:38;998.31;;;-2.98;100
75089;BME280;63673;49.928;8.150;2023-03-04T01:46:40;998.29;;;-2.98;100
75089;BME280;63673;49.928;8.150;2023-03-04T01:47:43;998.3;;;-2.98;100
75089;BME280;63673;49.928;8.150;2023-03-04T01:48:43;998.32;;;-2.96;100
75089;BME280;63673;49.928;8.150;2023-03-04T01:49:45;998.26;;;-2.97;100
75089;BME280;63673;49.928;8.150;2023-03-04T01:50:47;998.31;;;-2.98;100
75089;BME280;63673;49.928;8.150;2023-03-04T01:51:49;998.25;;;-2.97;100
75089;BME280;63673;49.928;8.150;2023-03-04T01:52:50;998.33;;;-2.98;100
75089;BME280;63673;49.928;8.150;2023-03-04T01:53:52;998.27;;;-2.99;100
75089;BME280;63673;49.928;8.150;2023-03-04T01:54:54;998.29;;;-3.01;100
75089;BME280;63673;49.928;8.150;2023-03-04T01:55:56;998.21;;;-3.03;100
75089;BME280;63673;49.928;8.150;2023-03-04T01:56:57;998.25;;;-3.02;100
75089;BME280;63673;49.928;8.150;2023-03-04T01:57:59;998.25;;;-3.02;100
75089;BME280;63673;49.928;8.150;2023-03-04T01:59:09;998.24;;;-3.06;100
75089;BME280;63673;49.928;8.150;2023-03-04T02:00:14;998.2;;;-3.06;100
75089;BME280;63673;49.928;8.150;2023-03-04T02:01:04;998.23;;;-3.07;100
75089;BME280;63673;49.928;8.150;2023-03-04T02:02:06;998.14;;;-3.09;100
75089;BME280;63673;49.928;8.150;2023-03-04T02:03:09;998.26;;;-3.11;100
75089;BME280;63673;49.928;8.150;2023-03-04T02:04:10;998.19;;;-3.12;100
75089;BME280;63673;49.928;8.150;2023-03-04T02:05:11;998.2;;;-3.15;100
75089;BME280;63673;49.928;8.150;2023-03-04T02:06:13;998.13;;;-3.16;100
75089;BME280;63673;49.928;8.150;2023-03-04T02:07:15;998.17;;;-3.15;100
75089;BME280;63673;49.928;8.150;2023-03-04T02:08:17;998.16;;;-3.16;100
75089;BME280;63673;49.928;8.150;2023-03-04T02:09:18;998.11;;;-3.19;100
75089;BME280;63673;49.928;8.150;2023-03-04T02:10:20;998.12;;;-3.21;100
75089;BME280;63673;49.928;8.150;2023-03-04T02:11:21;998.13;;;-3.22;100
75089;BME280;63673;49.928;8.150;2023-03-04T02:12:23;998.05;;;-3.23;100
75089;BME280;63673;49.928;8.150;2023-03-04T02:13:25;998.12;;;-3.24;100
75089;BME280;63673;49.928;8.150;2023-03-04T02:14:27;998.07;;;-3.25;100
75089;BME280;63673;49.928;8.150;2023-03-04T02:15:29;998.04;;;-3.26;100
75089;BME280;63673;49.928;8.150;2023-03-04T02:16:30;998.02;;;-3.29;100
75089;BME280;63673;49.928;8.150;2023-03-04T02:17:32;998.05;;;-3.29;100
75089;BME280;63673;49.928;8.150;2023-03-04T02:18:34;998.02;;;-3.32;100
75089;BME280;63673;49.928;8.150;2023-03-04T02:19:38;998.03;;;-3.33;100
75089;BME280;63673;49.928;8.150;2023-03-04T02:20:38;997.98;;;-3.35;100
75089;BME280;63673;49.928;8.150;2023-03-04T02:21:39;997.94;;;-3.36;100
75089;BME280;63673;49.928;8.150;2023-03-04T02:22:42;997.93;;;-3.38;100
75089;BME280;63673;49.928;8.150;2023-03-04T02:23:43;997.92;;;-3.39;100
75089;BME280;63673;49.928;8.150;2023-03-04T02:24:46;997.94;;;-3.41;100
75089;BME280;63673;49.928;8.150;2023-03-04T02:25:46;997.96;;;-3.41;100
75089;BME280;63673;49.928;8.150;2023-03-04T02:26:48;997.9;;;-3.42;100
75089;BME280;63673;49.928;8.150;2023-03-04T02:27:49;997.94;;;-3.43;100
75089;BME280;63673;49.928;8.150;2023-03-04T02:28:51;997.95;;;-3.43;100
75089;BME280;63673;49.928;8.150;2023-03-04T02:29:53;997.92;;;-3.43;100
75089;BME280;63673;49.928;8.150;2023-03-04T02:30:54;997.89;;;-3.45;100
75089;BME280;63673;49.928;8.150;2023-03-04T02:31:56;997.93;;;-3.43;100
75089;BME280;63673;49.928;8.150;2023-03-04T02:32:58;997.9;;;-3.42;100
75089;BME280;63673;49.928;8.150;2023-03-04T02:34:00;997.98;;;-3.41;100
75089;BME280;63673;49.928;8.150;2023-03-04T02:35:01;997.91;;;-3.4;100
75089;BME280;63673;49.928;8.150;2023-03-04T02:36:05;997.92;;;-3.39;100
75089;BME280;63673;49.928;8.150;2023-03-04T02:37:05;997.89;;;-3.38;100
75089;BME280;63673;49.928;8.150;2023-03-04T02:38:08;997.93;;;-3.38;100
75089;BME280;63673;49.928;8.150;2023-03-04T02:39:10;997.94;;;-3.37;100
75089;BME280;63673;49.928;8.150;2023-03-04T02:40:12;997.96;;;-3.37;100
75089;BME280;63673;49.928;8.150;2023-03-04T02:41:12;997.9;;;-3.38;100
75089;BME280;63673;49.928;8.150;2023-03-04T02:42:14;997.94;;;-3.4;100
75089;BME280;63673;49.928;8.150;2023-03-04T02:43:15;997.92;;;-3.41;100
75089;BME280;63673;49.928;8.150;2023-03-04T02:44:18;997.91;;;-3.44;100
75089;BME280;63673;49.928;8.150;2023-03-04T02:45:29;997.9;;;-3.43;100
75089;BME280;63673;49.928;8.150;2023-03-04T02:46:21;997.84;;;-3.45;100
75089;BME280;63673;49.928;8.150;2023-03-04T02:47:22;997.86;;;-3.45;100
75089;BME280;63673;49.928;8.150;2023-03-04T02:48:24;997.85;;;-3.43;100
75089;BME280;63673;49.928;8.150;2023-03-04T02:49:26;997.77;;;-3.43;100
75089;BME280;63673;49.928;8.150;2023-03-04T02:50:29;997.8;;;-3.44;100
75089;BME280;63673;49.928;8.150;2023-03-04T02:51:29;997.8;;;-3.45;100
75089;BME280;63673;49.928;8.150;2023-03-04T02:52:31;997.83;;;-3.44;100
75089;BME280;63673;49.928;8.150;2023-03-04T02:53:33;997.83;;;-3.44;100
75089;BME280;63673;49.928;8.150;2023-03-04T02:54:35;997.81;;;-3.45;100
75089;BME280;63673;49.928;8.150;2023-03-04T02:55:36;997.79;;;-3.46;100
75089;BME280;63673;49.928;8.150;2023-03-04T02:56:38;997.84;;;-3.45;100
75089;BME280;63673;49.928;8.150;2023-03-04T02:57:40;997.81;;;-3.45;100
75089;BME280;63673;49.928;8.150;2023-03-04T02:58:41;997.83;;;-3.43;100
75089;BME280;63673;49.928;8.150;2023-03-04T02:59:43;997.79;;;-3.44;100
75089;BME280;63673;49.928;8.150;2023-03-04T03:00:49;997.84;;;-3.43;100
75089;BME280;63673;49.928;8.150;2023-03-04T03:01:52;997.79;;;-3.41;100
75089;BME280;63673;49.928;8.150;2023-03-04T03:02:53;997.87;;;-3.4;100
75089;BME280;63673;49.928;8.150;2023-03-04T03:03:55;997.83;;;-3.42;100
75089;BME280;63673;49.928;8.150;2023-03-04T03:04:57;997.84;;;-3.4;100
75089;BME280;63673;49.928;8.150;2023-03-04T03:05:58;997.85;;;-3.39;100
75089;BME280;63673;49.928;8.150;2023-03-04T03:07:00;997.81;;;-3.38;100
75089;BME280;63673;49.928;8.150;2023-03-04T03:08:02;997.85;;;-3.38;100
75089;BME280;63673;49.928;8.150;2023-03-04T03:09:04;997.74;;;-3.39;100
75089;BME280;63673;49.928;8.150;2023-03-04T03:10:06;997.74;;;-3.39;100
75089;BME280;63673;49.928;8.150;2023-03-04T03:11:07;997.76;;;-3.39;100
75089;BME280;63673;49.928;8.150;2023-03-04T03:12:09;997.71;;;-3.39;100
75089;BME280;63673;49.928;8.150;2023-03-04T03:13:11;997.76;;;-3.4;100
75089;BME280;63673;49.928;8.150;2023-03-04T03:14:12;997.77;;;-3.4;100
75089;BME280;63673;49.928;8.150;2023-03-04T03:15:14;997.79;;;-3.41;100
75089;BME280;63673;49.928;8.150;2023-03-04T03:16:16;997.81;;;-3.4;100
75089;BME280;63673;49.928;8.150;2023-03-04T03:17:18;997.79;;;-3.39;100
75089;BME280;63673;49.928;8.150;2023-03-04T03:18:19;997.77;;;-3.39;100
75089;BME280;63673;49.928;8.150;2023-03-04T03:19:21;997.78;;;-3.38;100
75089;BME280;63673;49.928;8.150;2023-03-04T03:20:23;997.82;;;-3.37;100
75089;BME280;63673;49.928;8.150;2023-03-04T03:21:24;997.77;;;-3.35;100
75089;BME280;63673;49.928;8.150;2023-03-04T03:22:26;997.76;;;-3.37;100
75089;BME280;63673;49.928;8.150;2023-03-04T03:23:28;997.82;;;-3.37;100
75089;BME280;63673;49.928;8.150;2023-03-04T03:24:30;997.8;;;-3.35;100
75089;BME280;63673;49.928;8.150;2023-03-04T03:25:31;997.78;;;-3.35;100
75089;BME280;63673;49.928;8.150;2023-03-04T03:26:33;997.76;;;-3.35;100
75089;BME280;63673;49.928;8.150;2023-03-04T03:27:35;997.82;;;-3.35;100
75089;BME280;63673;49.928;8.150;2023-03-04T03:28:37;997.76;;;-3.34;100
75089;BME280;63673;49.928;8.150;2023-03-04T03:29:38;997.72;;;-3.35;100
75089;BME280;63673;49.928;8.150;2023-03-04T03:30:40;997.73;;;-3.34;100
75089;BME280;63673;49.928;8.150;2023-03-04T03:31:42;997.69;;;-3.33;100
75089;BME280;63673;49.928;8.150;2023-03-04T03:32:44;997.74;;;-3.34;100
75089;BME280;63673;49.928;8.150;2023-03-04T03:33:45;997.65;;;-3.33;100
75089;BME280;63673;49.928;8.150;2023-03-04T03:34:47;997.73;;;-3.33;100
75089;BME280;63673;49.928;8.150;2023-03-04T03:35:49;997.64;;;-3.33;100
75089;BME280;63673;49.928;8.150;2023-03-04T03:36:51;997.72;;;-3.32;100
75089;BME280;63673;49.928;8.150;2023-03-04T03:37:52;997.65;;;-3.3;100
75089;BME280;63673;49.928;8.150;2023-03-04T03:38:54;997.67;;;-3.29;100
75089;BME280;63673;49.928;8.150;2023-03-04T03:39:56;997.64;;;-3.29;100
75089;BME280;63673;49.928;8.150;2023-03-04T03:40:57;997.71;;;-3.27;100
75089;BME280;63673;49.928;8.150;2023-03-04T03:41:59;997.67;;;-3.24;100
75089;BME280;63673;49.928;8.150;2023-03-04T03:43:01;997.68;;;-3.23;100
75089;BME280;63673;49.928;8.150;2023-03-04T03:44:03;997.69;;;-3.21;100
75089;BME280;63673;49.928;8.150;2023-03-04T03:45:05;997.64;;;-3.2;100
75089;BME280;63673;49.928;8.150;2023-03-04T03:46:06;997.61;;;-3.17;100
75089;BME280;63673;49.928;8.150;2023-03-04T03:47:08;997.65;;;-3.16;100
75089;BME280;63673;49.928;8.150;2023-03-04T03:48:10;997.65;;;-3.15;100
75089;BME280;63673;49.928;8.150;2023-03-04T03:49:11;997.66;;;-3.15;100
75089;BME280;63673;49.928;8.150;2023-03-04T03:50:13;997.6;;;-3.14;100
75089;BME280;63673;49.928;8.150;2023-03-04T03:51:15;997.68;;;-3.11;100
75089;BME280;63673;49.928;8.150;2023-03-04T03:52:16;997.65;;;-3.09;100
75089;BME280;63673;49.928;8.150;2023-03-04T03:53:18;997.73;;;-3.06;100
75089;BME280;63673;49.928;8.150;2023-03-04T03:54:20;997.63;;;-3.05;100
75089;BME280;63673;49.928;8.150;2023-03-04T03:55:22;997.72;;;-3.04;100
75089;BME280;63673;49.928;8.150;2023-03-04T03:56:25;997.61;;;-3.02;100
75089;BME280;63673;49.928;8.150;2023-03-04T03:57:30;997.58;;;-3;100
75089;BME280;63673;49.928;8.150;2023-03-04T03:58:32;997.57;;;-2.99;100
75089;BME280;63673;49.928;8.150;2023-03-04T03:59:34;997.63;;;-2.96;100
75089;BME280;63673;49.928;8.150;2023-03-04T04:00:36;997.59;;;-2.95;100
75089;BME280;63673;49.928;8.150;2023-03-04T04:01:37;997.59;;;-2.93;100
75089;BME280;63673;49.928;8.150;2023-03-04T04:02:39;997.6;;;-2.92;100
75089;BME280;63673;49.928;8.150;2023-03-04T04:03:41;997.6;;;-2.89;100
75089;BME280;63673;49.928;8.150;2023-03-04T04:04:47;997.63;;;-2.88;100
75089;BME280;63673;49.928;8.150;2023-03-04T04:05:49;997.63;;;-2.87;100
75089;BME280;63673;49.928;8.150;2023-03-04T04:06:51;997.64;;;-2.84;100
75089;BME280;63673;49.928;8.150;2023-03-04T04:07:53;997.68;;;-2.82;100
75089;BME280;63673;49.928;8.150;2023-03-04T04:08:55;997.63;;;-2.78;100
75089;BME280;63673;49.928;8.150;2023-03-04T04:09:56;997.52;;;-2.77;100
75089;BME280;63673;49.928;8.150;2023-03-04T04:10:58;997.64;;;-2.74;100
75089;BME280;63673;49.928;8.150;2023-03-04T04:12:00;997.62;;;-2.72;100
75089;BME280;63673;49.928;8.150;2023-03-04T04:13:02;997.64;;;-2.69;100
75089;BME280;63673;49.928;8.150;2023-03-04T04:14:03;997.62;;;-2.67;100
75089;BME280;63673;49.928;8.150;2023-03-04T04:15:05;997.6;;;-2.64;100
75089;BME280;63673;49.928;8.150;2023-03-04T04:16:07;997.58;;;-2.61;100
75089;BME280;63673;49.928;8.150;2023-03-04T04:17:08;997.65;;;-2.59;100
75089;BME280;63673;49.928;8.150;2023-03-04T04:18:10;997.62;;;-2.57;100
75089;BME280;63673;49.928;8.150;2023-03-04T04:19:15;997.61;;;-2.52;100
75089;BME280;63673;49.928;8.150;2023-03-04T04:20:14;997.65;;;-2.5;100
75089;BME280;63673;49.928;8.150;2023-03-04T04:21:15;997.62;;;-2.48;100
75089;BME280;63673;49.928;8.150;2023-03-04T04:22:18;997.7;;;-2.44;100
75089;BME280;63673;49.928;8.150;2023-03-04T04:23:19;997.73;;;-2.42;100
75089;BME280;63673;49.928;8.150;2023-03-04T04:24:21;997.65;;;-2.39;100
75089;BME280;63673;49.928;8.150;2023-03-04T04:25:22;997.62;;;-2.37;100
75089;BME280;63673;49.928;8.150;2023-03-04T04:26:24;997.65;;;-2.33;100
75089;BME280;63673;49.928;8.150;2023-03-04T04:27:26;997.61;;;-2.3;100
75089;BME280;63673;49.928;8.150;2023-03-04T04:28:27;997.62;;;-2.29;100
75089;BME280;63673;49.928;8.150;2023-03-04T04:29:29;997.66;;;-2.26;100
75089;BME280;63673;49.928;8.150;2023-03-04T04:30:31;997.65;;;-2.22;100
75089;BME280;63673;49.928;8.150;2023-03-04T04:31:33;997.6;;;-2.18;100
75089;BME280;63673;49.928;8.150;2023-03-04T04:32:34;997.59;;;-2.16;100
75089;BME280;63673;49.928;8.150;2023-03-04T04:33:36;997.6;;;-2.14;100
75089;BME280;63673;49.928;8.150;2023-03-04T04:34:38;997.59;;;-2.13;100
75089;BME280;63673;49.928;8.150;2023-03-04T04:35:40;997.61;;;-2.1;100
75089;BME280;63673;49.928;8.150;2023-03-04T04:36:41;997.67;;;-2.08;100
75089;BME280;63673;49.928;8.150;2023-03-04T04:37:43;997.64;;;-2.07;100
75089;BME280;63673;49.928;8.150;2023-03-04T04:38:46;997.62;;;-2.03;100
75089;BME280;63673;49.928;8.150;2023-03-04T04:39:47;997.57;;;-2.01;100
75089;BME280;63673;49.928;8.150;2023-03-04T04:40:48;997.6;;;-2;100
75089;BME280;63673;49.928;8.150;2023-03-04T04:41:50;997.61;;;-1.98;100
75089;BME280;63673;49.928;8.150;2023-03-04T04:42:52;997.52;;;-1.96;100
75089;BME280;63673;49.928;8.150;2023-03-04T04:43:54;997.6;;;-1.94;100
75089;BME280;63673;49.928;8.150;2023-03-04T04:44:55;997.63;;;-1.92;100
75089;BME280;63673;49.928;8.150;2023-03-04T04:45:57;997.64;;;-1.88;100
75089;BME280;63673;49.928;8.150;2023-03-04T04:46:59;997.6;;;-1.87;100
75089;BME280;63673;49.928;8.150;2023-03-04T04:48:00;997.66;;;-1.85;100
75089;BME280;63673;49.928;8.150;2023-03-04T04:49:03;997.61;;;-1.81;100
75089;BME280;63673;49.928;8.150;2023-03-04T04:50:04;997.6;;;-1.79;100
75089;BME280;63673;49.928;8.150;2023-03-04T04:51:06;997.57;;;-1.78;100
75089;BME280;63673;49.928;8.150;2023-03-04T04:52:10;997.62;;;-1.78;100
75089;BME280;63673;49.928;8.150;2023-03-04T04:53:14;997.6;;;-1.73;100
75089;BME280;63673;49.928;8.150;2023-03-04T04:54:16;997.6;;;-1.71;100
75089;BME280;63673;49.928;8.150;2023-03-04T04:55:18;997.6;;;-1.67;100
75089;BME280;63673;49.928;8.150;2023-03-04T04:56:20;997.53;;;-1.67;100
75089;BME280;63673;49.928;8.150;2023-03-04T04:57:21;997.57;;;-1.65;100
75089;BME280;63673;49.928;8.150;2023-03-04T04:58:23;997.54;;;-1.63;100
75089;BME280;63673;49.928;8.150;2023-03-04T04:59:25;997.52;;;-1.61;100
75089;BME280;63673;49.928;8.150;2023-03-04T05:00:26;997.57;;;-1.59;100
75089;BME280;63673;49.928;8.150;2023-03-04T05:01:28;997.54;;;-1.58;100
75089;BME280;63673;49.928;8.150;2023-03-04T05:02:30;997.61;;;-1.56;100
75089;BME280;63673;49.928;8.150;2023-03-04T05:03:32;997.59;;;-1.53;100
75089;BME280;63673;49.928;8.150;2023-03-04T05:04:33;997.55;;;-1.52;100
75089;BME280;63673;49.928;8.150;2023-03-04T05:05:35;997.56;;;-1.49;100
75089;BME280;63673;49.928;8.150;2023-03-04T05:06:37;997.53;;;-1.49;100
75089;BME280;63673;49.928;8.150;2023-03-04T05:07:38;997.54;;;-1.45;100
75089;BME280;63673;49.928;8.150;2023-03-04T05:08:40;997.5;;;-1.44;100
75089;BME280;63673;49.928;8.150;2023-03-04T05:09:42;997.49;;;-1.42;100
75089;BME280;63673;49.928;8.150;2023-03-04T05:10:44;997.49;;;-1.39;100
75089;BME280;63673;49.928;8.150;2023-03-04T05:11:45;997.54;;;-1.37;100
75089;BME280;63673;49.928;8.150;2023-03-04T05:12:47;997.5;;;-1.36;100
75089;BME280;63673;49.928;8.150;2023-03-04T05:13:49;997.57;;;-1.33;100
75089;BME280;63673;49.928;8.150;2023-03-04T05:14:51;997.53;;;-1.3;100
75089;BME280;63673;49.928;8.150;2023-03-04T05:15:53;997.52;;;-1.29;100
75089;BME280;63673;49.928;8.150;2023-03-04T05:16:54;997.49;;;-1.27;100
75089;BME280;63673;49.928;8.150;2023-03-04T05:17:56;997.51;;;-1.25;100
75089;BME280;63673;49.928;8.150;2023-03-04T05:18:57;997.54;;;-1.23;100
75089;BME280;63673;49.928;8.150;2023-03-04T05:19:59;997.5;;;-1.21;100
75089;BME280;63673;49.928;8.150;2023-03-04T05:21:01;997.49;;;-1.19;100
75089;BME280;63673;49.928;8.150;2023-03-04T05:22:03;997.46;;;-1.17;100
75089;BME280;63673;49.928;8.150;2023-03-04T05:23:04;997.49;;;-1.15;100
75089;BME280;63673;49.928;8.150;2023-03-04T05:24:06;997.44;;;-1.15;100
75089;BME280;63673;49.928;8.150;2023-03-04T05:25:08;997.47;;;-1.12;100
75089;BME280;63673;49.928;8.150;2023-03-04T05:26:10;997.47;;;-1.1;100
75089;BME280;63673;49.928;8.150;2023-03-04T05:27:11;997.43;;;-1.09;100
75089;BME280;63673;49.928;8.150;2023-03-04T05:28:13;997.45;;;-1.07;100
75089;BME280;63673;49.928;8.150;2023-03-04T05:29:15;997.42;;;-1.05;100
75089;BME280;63673;49.928;8.150;2023-03-04T05:30:17;997.41;;;-1.02;100
75089;BME280;63673;49.928;8.150;2023-03-04T05:31:18;997.38;;;-1;100
75089;BME280;63673;49.928;8.150;2023-03-04T05:32:20;997.43;;;-1;100
75089;BME280;63673;49.928;8.150;2023-03-04T05:33:22;997.37;;;-0.96;100
75089;BME280;63673;49.928;8.150;2023-03-04T05:34:23;997.41;;;-0.93;100
75089;BME280;63673;49.928;8.150;2023-03-04T05:35:25;997.39;;;-0.91;100
75089;BME280;63673;49.928;8.150;2023-03-04T05:36:27;997.43;;;-0.9;100
75089;BME280;63673;49.928;8.150;2023-03-04T05:37:29;997.46;;;-0.87;100
75089;BME280;63673;49.928;8.150;2023-03-04T05:38:31;997.43;;;-0.85;100
75089;BME280;63673;49.928;8.150;2023-03-04T05:39:32;997.43;;;-0.83;100
75089;BME280;63673;49.928;8.150;2023-03-04T05:40:34;997.42;;;-0.81;100
75089;BME280;63673;49.928;8.150;2023-03-04T05:41:36;997.41;;;-0.8;100
75089;BME280;63673;49.928;8.150;2023-03-04T05:42:37;997.49;;;-0.78;100
75089;BME280;63673;49.928;8.150;2023-03-04T05:43:39;997.45;;;-0.75;100
75089;BME280;63673;49.928;8.150;2023-03-04T05:44:41;997.52;;;-0.73;100
75089;BME280;63673;49.928;8.150;2023-03-04T05:45:43;997.48;;;-0.71;100
75089;BME280;63673;49.928;8.150;2023-03-04T05:46:44;997.51;;;-0.69;100